Time;durP1;ratioP1;P1;durP2;ratioP2;P2;SDS_P1;SDS_P2;PMS_P1;PMS_P2;Temp;Humidity;BMP_temperature;BMP_pressure;BME280_temperature;BME280_humidity;BME280_pressure;Samples;Min_cycle;Max_cycle;Signal;HPM_P1;HPM_P2
2022/05/27 00:00:48;;;;;;;2.42;1.60;;;;;;;7.53;100.00;93738.56;2098476;28;20119;-83
2022/05/27 00:01:49;;;;;;;1.58;1.45;;;;;;;7.57;100.00;93734.00;2098560;28;20021;-82
2022/05/27 00:02:51;;;;;;;2.15;1.35;;;;;;;7.70;100.00;93735.16;2098388;28;20029;-82
2022/05/27 00:03:53;;;;;;;1.70;1.55;;;;;;;7.73;100.00;93741.63;2106720;28;20403;-82
2022/05/27 00:04:54;;;;;;;1.48;1.35;;;;;;;7.61;100.00;93739.34;2098585;28;20032;-82
2022/05/27 00:05:55;;;;;;;2.08;1.45;;;;;;;7.60;100.00;93737.81;2090273;28;20027;-82
2022/05/27 00:06:56;;;;;;;1.30;1.20;;;;;;;7.60;100.00;93735.91;2102254;28;20135;-82
2022/05/27 00:07:57;;;;;;;4.10;1.60;;;;;;;7.53;100.00;93735.91;2098449;28;20032;-83
2022/05/27 00:08:58;;;;;;;1.48;1.20;;;;;;;7.41;100.00;93730.97;2106795;28;20032;-83
2022/05/27 00:09:59;;;;;;;2.20;1.60;;;;;;;7.52;100.00;93739.72;2106830;28;20451;-83
2022/05/27 00:11:01;;;;;;;2.25;1.33;;;;;;;7.43;100.00;93734.78;2099038;28;20028;-83
2022/05/27 00:12:04;;;;;;;4.93;1.33;;;;;;;7.45;100.00;93726.41;2106983;28;20491;-82
2022/05/27 00:13:05;;;;;;;1.83;1.30;;;;;;;7.56;100.00;93737.81;2098445;28;20439;-83
2022/05/27 00:14:10;;;;;;;1.35;1.20;;;;;;;7.45;100.00;93726.41;2097794;28;20029;-83
2022/05/27 00:15:13;;;;;;;3.40;1.15;;;;;;;7.33;100.00;93724.88;2098871;28;20028;-83
2022/05/27 00:16:14;;;;;;;2.40;1.30;;;;;;;7.26;100.00;93723.00;2098325;28;20028;-82
2022/05/27 00:17:15;;;;;;;2.17;1.17;;;;;;;7.31;100.00;93724.50;2098391;28;20598;-82
2022/05/27 00:18:18;;;;;;;1.98;1.20;;;;;;;7.22;100.00;93724.88;2098316;28;20020;-83
2022/05/27 00:19:19;;;;;;;1.85;1.30;;;;;;;7.24;100.00;93721.84;2090254;28;20057;-83
2022/05/27 00:20:20;;;;;;;1.88;1.27;;;;;;;7.39;100.00;93723.38;2085418;28;20025;-82
2022/05/27 00:21:21;;;;;;;2.55;1.33;;;;;;;7.46;100.00;93723.38;2090079;28;20053;-83
2022/05/27 00:22:23;;;;;;;2.03;1.30;;;;;;;7.60;100.00;93719.19;2090119;28;20116;-83
2022/05/27 00:23:24;;;;;;;2.22;1.40;;;;;;;7.56;100.00;93724.53;2090245;28;20040;-83
2022/05/27 00:24:25;;;;;;;3.20;1.50;;;;;;;7.58;100.00;93725.63;2098355;28;20131;-83
2022/05/27 00:25:27;;;;;;;3.40;1.38;;;;;;;7.73;100.00;93720.34;2098150;28;20016;-83
2022/05/27 00:26:28;;;;;;;3.22;1.67;;;;;;;7.65;100.00;93732.13;2090220;28;20021;-83
2022/05/27 00:27:29;;;;;;;2.00;1.40;;;;;;;7.65;100.00;93724.13;2098219;28;20481;-83
2022/05/27 00:28:30;;;;;;;4.28;1.63;;;;;;;7.56;100.00;93727.19;2098252;28;20021;-83
2022/05/27 00:29:31;;;;;;;3.25;1.70;;;;;;;7.46;100.00;93718.06;2098297;28;20017;-83
2022/05/27 00:30:32;;;;;;;3.53;1.70;;;;;;;7.39;100.00;93728.69;2106318;28;20080;-83
2022/05/27 00:31:33;;;;;;;2.55;1.50;;;;;;;7.39;100.00;93734.00;2097984;28;20017;-83
2022/05/27 00:32:36;;;;;;;4.25;1.55;;;;;;;7.27;100.00;93735.13;2098283;28;20025;-83
2022/05/27 00:33:39;;;;;;;1.80;1.30;;;;;;;7.28;100.00;93728.69;2098631;28;20023;-83
2022/05/27 00:34:49;;;;;;;4.57;1.90;;;;;;;7.27;100.00;93721.84;2097420;28;20025;-83
2022/05/27 00:35:50;;;;;;;3.63;2.00;;;;;;;7.17;100.00;93725.25;2099078;28;20078;-82
2022/05/27 00:36:51;;;;;;;2.17;1.60;;;;;;;7.20;100.00;93724.50;2097547;28;20543;-83
2022/05/27 00:37:52;;;;;;;2.25;1.63;;;;;;;7.31;100.00;93727.16;2098245;28;20016;-83
2022/05/27 00:38:54;;;;;;;3.85;1.63;;;;;;;7.40;100.00;93724.88;2089937;28;20025;-83
2022/05/27 00:39:56;;;;;;;3.00;2.20;;;;;;;7.29;100.00;93724.16;2090049;28;20087;-83
2022/05/27 00:40:57;;;;;;;3.33;1.80;;;;;;;7.25;100.00;93721.47;2106679;28;20031;-83
2022/05/27 00:42:00;;;;;;;6.60;1.77;;;;;;;7.32;100.00;93726.03;2114956;28;20024;-83
2022/05/27 00:43:02;;;;;;;3.45;1.80;;;;;;;7.29;100.00;93721.47;2098369;28;20024;-83
2022/05/27 00:44:04;;;;;;;2.42;1.60;;;;;;;7.44;100.00;93711.59;2106749;28;20488;-82
2022/05/27 00:45:06;;;;;;;3.38;1.98;;;;;;;7.39;100.00;93704.75;2106743;28;20483;-83
2022/05/27 00:46:22;;;;;;;4.22;1.70;;;;;;;7.40;100.00;93713.50;2098168;28;20020;-82
2022/05/27 00:47:25;;;;;;;4.43;2.08;;;;;;;7.34;100.00;93704.38;2102219;28;20087;-82
2022/05/27 00:48:27;;;;;;;2.45;1.70;;;;;;;7.37;100.00;93712.34;2106729;28;20024;-83
2022/05/27 00:49:29;;;;;;;3.65;1.67;;;;;;;7.34;100.00;93707.81;2106509;28;20843;-82
2022/05/27 00:50:36;;;;;;;2.80;1.73;;;;;;;7.42;100.00;93706.66;2106542;28;20054;-82
2022/05/27 00:52:01;;;;;;;5.00;1.90;;;;;;;7.27;100.00;93703.22;2107079;28;20031;-82
2022/05/27 00:53:06;;;;;;;3.67;1.70;;;;;;;7.37;100.00;93706.28;2101353;28;20051;-82
2022/05/27 00:54:12;;;;;;;3.45;1.98;;;;;;;7.29;100.00;93702.88;2090676;28;20025;-82
2022/05/27 00:55:22;;;;;;;2.58;1.88;;;;;;;7.21;100.00;93701.34;2091083;28;20021;-82
2022/05/27 00:56:24;;;;;;;;;;;;;;;7.30;100.00;93691.84;2099754;28;20485;-82
2022/05/27 00:57:35;;;;;;;3.20;1.80;;;;;;;7.14;100.00;93699.44;2098562;28;19995;-82
2022/05/27 00:58:43;;;;;;;3.42;1.60;;;;;;;7.14;100.00;93699.44;2099229;28;20028;-82
2022/05/27 01:00:05;;;;;;;2.25;1.85;;;;;;;7.20;100.00;93702.47;2100007;28;20370;-82
2022/05/27 01:01:06;;;;;;;1.90;1.77;;;;;;;7.11;100.00;93694.09;2100721;28;20417;-82
2022/05/27 01:02:07;;;;;;;2.30;1.58;;;;;;;7.10;100.00;93695.25;2089961;28;20028;-82
2022/05/27 01:03:12;;;;;;;1.90;1.75;;;;;;;6.97;100.00;93694.84;2081667;28;20025;-82
2022/05/27 01:04:14;;;;;;;2.50;1.98;;;;;;;6.93;100.00;93694.84;2098418;28;20098;-82
2022/05/27 01:05:19;;;;;;;2.78;1.90;;;;;;;7.01;100.00;93693.72;2106313;28;20477;-82
2022/05/27 01:06:20;;;;;;;6.75;1.80;;;;;;;6.91;100.00;93691.06;2098510;28;20031;-82
2022/05/27 01:07:21;;;;;;;3.28;2.00;;;;;;;6.93;100.00;93689.53;2097856;28;20043;-82
2022/05/27 01:08:26;;;;;;;2.42;1.42;;;;;;;6.93;100.00;93686.88;2097979;28;20024;-82
2022/05/27 01:09:29;;;;;;;1.92;1.42;;;;;;;7.01;100.00;93688.41;2098453;28;20036;-82
2022/05/27 01:10:39;;;;;;;2.88;1.65;;;;;;;7.03;100.00;93683.47;2089817;28;20474;-82
2022/05/27 01:11:40;;;;;;;2.70;2.00;;;;;;;6.89;100.00;93680.81;2092082;28;20489;-82
2022/05/27 01:13:06;;;;;;;2.20;2.00;;;;;;;7.03;100.00;93683.47;2089447;28;20025;-82
2022/05/27 01:14:40;;;;;;;3.30;1.83;;;;;;;7.10;100.00;93684.63;2104577;28;20093;-82
2022/05/27 01:15:42;;;;;;;6.15;2.40;;;;;;;6.92;100.00;93685.34;2097675;28;20059;-82
2022/05/27 01:16:52;;;;;;;3.33;1.67;;;;;;;6.91;100.00;93677.78;2089906;28;20025;-82
2022/05/27 01:17:53;;;;;;;;;;;;;;;6.81;100.00;93676.63;2106676;28;20028;-82
2022/05/27 01:21:14;;;;;;;2.83;2.03;;;;;;;6.73;100.00;93685.72;2103968;28;20066;-82
2022/05/27 01:22:21;;;;;;;2.45;1.70;;;;;;;6.82;100.00;93681.56;2093002;28;20468;-82
2022/05/27 01:23:34;;;;;;;4.85;2.00;;;;;;;6.85;100.00;93679.25;2098667;28;20366;-82
2022/05/27 01:24:40;;;;;;;3.72;1.73;;;;;;;7.05;100.00;93675.13;2091125;28;20021;-82
2022/05/27 01:26:24;;;;;;;2.80;1.63;;;;;;;7.03;100.00;93683.47;2098398;28;20115;-82
2022/05/27 01:27:58;;;;;;;3.15;1.60;;;;;;;7.00;100.00;93678.91;2095368;28;20029;-82
2022/05/27 01:29:03;;;;;;;3.72;1.80;;;;;;;6.85;100.00;93672.09;2090142;28;20034;-83
2022/05/27 01:30:24;;;;;;;4.05;1.77;;;;;;;6.86;100.00;93678.16;2090886;28;20020;-82
2022/05/27 01:31:44;;;;;;;2.65;1.60;;;;;;;6.89;100.00;93682.69;2092374;28;20021;-82
2022/05/27 01:33:04;;;;;;;4.43;1.60;;;;;;;6.88;100.00;93676.63;2102945;28;20028;-82
2022/05/27 01:34:11;;;;;;;;;;;;;;;6.79;100.00;93674.34;2100931;28;20037;-82
2022/05/27 01:35:42;;;;;;;3.15;2.47;;;;;;;6.73;100.00;93680.41;2091120;28;19912;-82
2022/05/27 01:37:21;;;;;;;2.45;1.40;;;;;;;6.68;100.00;93681.53;2105750;28;20028;-83
2022/05/27 01:38:41;;;;;;;3.95;1.50;;;;;;;6.76;100.00;93687.59;2102649;28;20031;-82
2022/05/27 01:40:08;;;;;;;1.42;1.33;;;;;;;6.66;100.00;93677.72;2108701;28;20759;-83
2022/05/27 01:41:43;;;;;;;3.55;1.30;;;;;;;6.68;100.00;93676.22;2109399;28;20450;-82
2022/05/27 01:42:49;;;;;;;1.55;1.30;;;;;;;6.63;100.00;93675.81;2072344;28;20491;-82
2022/05/27 01:43:59;;;;;;;1.42;1.30;;;;;;;6.61;100.00;93678.09;2092206;28;20048;-83
2022/05/27 01:45:17;;;;;;;1.42;1.33;;;;;;;6.66;100.00;93672.41;2091753;28;20032;-82
2022/05/27 01:46:41;;;;;;;3.00;1.73;;;;;;;6.66;100.00;93677.72;2093871;28;20040;-82
2022/05/27 01:47:54;;;;;;;1.88;1.40;;;;;;;6.73;100.00;93677.75;2100927;28;20024;-82
2022/05/27 01:49:18;;;;;;;1.65;1.30;;;;;;;6.66;100.00;93675.06;2100841;28;20024;-82
2022/05/27 01:50:26;;;;;;;1.30;1.20;;;;;;;6.68;100.00;93684.19;2105902;28;20024;-82
2022/05/27 01:51:33;;;;;;;3.45;1.85;;;;;;;6.73;100.00;93672.44;2091274;28;20028;-82
2022/05/27 01:52:46;;;;;;;2.25;1.27;;;;;;;6.76;100.00;93672.44;2090892;28;20021;-82
2022/05/27 01:53:51;;;;;;;1.73;1.35;;;;;;;6.66;100.00;93677.72;2099148;28;20028;-82
2022/05/27 01:55:00;;;;;;;1.95;1.80;;;;;;;6.77;100.00;93679.28;2097396;28;20024;-82
2022/05/27 01:56:14;;;;;;;1.27;1.17;;;;;;;6.67;100.00;93673.91;2091456;28;20032;-82
2022/05/27 01:57:24;;;;;;;7.10;1.67;;;;;;;6.64;100.00;93677.34;2091016;28;20074;-83
2022/05/27 01:58:30;;;;;;;;;;;;;;;6.59;100.00;93664.44;2092374;28;20021;-81
2022/05/27 02:00:16;;;;;;;2.15;1.40;;;;;;;6.53;100.00;93666.69;2089803;28;19909;-81
2022/05/27 02:01:26;;;;;;;1.48;1.38;;;;;;;6.57;100.00;93667.47;2076457;28;20033;-81
2022/05/27 02:02:30;;;;;;;1.42;1.33;;;;;;;6.57;100.00;93665.56;2073618;28;20032;-82
2022/05/27 02:03:41;;;;;;;3.35;1.50;;;;;;;6.58;100.00;93661.00;2076451;28;20033;-82
2022/05/27 02:04:49;;;;;;;2.92;1.83;;;;;;;6.73;100.00;93667.13;2100331;28;20032;-82
2022/05/27 02:05:55;;;;;;;2.88;1.50;;;;;;;6.75;100.00;93660.28;2097091;28;20020;-82
2022/05/27 02:07:02;;;;;;;3.60;1.63;;;;;;;6.60;100.00;93658.75;2082429;28;20741;-81
2022/05/27 02:08:20;;;;;;;2.00;1.80;;;;;;;6.54;100.00;93658.38;2090972;28;20025;-81
2022/05/27 02:09:35;;;;;;;2.40;1.60;;;;;;;6.59;100.00;93667.84;2108052;28;20032;-81
2022/05/27 02:10:47;;;;;;;2.20;1.58;;;;;;;6.55;100.00;93669.75;2097116;28;20035;-82
2022/05/27 02:13:36;;;;;;;;;;;;;;;6.55;100.00;93665.19;2148524;27;20180;-82
2022/05/27 02:15:06;;;;;;;1.88;1.42;;;;;;;6.55;100.00;93667.09;2129944;27;19922;-82
2022/05/27 02:16:13;;;;;;;2.83;1.80;;;;;;;6.63;100.00;93667.84;2120939;27;20034;-82
2022/05/27 02:17:18;;;;;;;2.65;1.40;;;;;;;6.63;100.00;93670.50;2122337;27;20058;-83
2022/05/27 02:18:31;;;;;;;3.72;1.50;;;;;;;6.60;100.00;93668.63;2113616;28;20031;-82
2022/05/27 02:19:40;;;;;;;1.77;1.55;;;;;;;6.56;100.00;93674.66;2114555;28;20027;-82
2022/05/27 02:20:49;;;;;;;1.73;1.58;;;;;;;6.53;100.00;93666.69;2106733;28;20111;-83
2022/05/27 02:22:19;;;;;;;2.45;2.00;;;;;;;6.57;100.00;93665.56;2106666;28;20029;-82
2022/05/27 02:23:35;;;;;;;1.77;1.40;;;;;;;6.49;100.00;93660.59;2113506;28;20089;-82
2022/05/27 02:24:45;;;;;;;1.92;1.63;;;;;;;6.42;100.00;93658.72;2117257;27;20038;-82
2022/05/27 02:25:48;;;;;;;1.98;1.50;;;;;;;6.49;100.00;93658.72;2113873;28;20071;-82
2022/05/27 02:26:55;;;;;;;1.65;1.50;;;;;;;6.39;100.00;93656.03;2105038;28;20431;-82
2022/05/27 02:28:15;;;;;;;2.17;1.63;;;;;;;6.48;100.00;93662.50;2106172;28;20027;-83
2022/05/27 02:29:26;;;;;;;3.75;1.42;;;;;;;6.46;100.00;93659.47;2118255;27;20019;-82
2022/05/27 02:30:30;;;;;;;3.95;1.60;;;;;;;6.30;100.00;93659.03;2114473;28;20023;-82
2022/05/27 02:31:35;;;;;;;2.72;1.77;;;;;;;6.33;100.00;93660.19;2114837;27;20439;-83
2022/05/27 02:35:07;;;;;;;3.28;1.58;;;;;;;6.46;100.00;93664.78;2121176;28;20024;-82
2022/05/27 02:35:48;;;;;;;3.10;1.90;;;;;;;6.40;100.00;93663.63;2134243;27;20075;-82
2022/05/27 02:36:56;;;;;;;2.67;1.50;;;;;;;6.37;100.00;93656.41;2121640;27;20386;-83
2022/05/27 02:38:00;;;;;;;2.00;1.80;;;;;;;6.32;100.00;93659.41;2114741;27;20023;-83
2022/05/27 02:39:02;;;;;;;2.03;1.52;;;;;;;6.37;100.00;93656.41;2105279;28;20025;-83
2022/05/27 02:40:09;;;;;;;1.58;1.42;;;;;;;6.38;100.00;93660.59;2121758;27;20154;-83
2022/05/27 02:41:37;;;;;;;2.53;1.58;;;;;;;6.24;100.00;93658.66;2127384;27;20021;-83
2022/05/27 02:42:58;;;;;;;3.42;1.60;;;;;;;6.30;100.00;93656.38;2120290;27;20476;-83
2022/05/27 02:44:22;;;;;;;1.63;1.50;;;;;;;6.30;100.00;93657.16;2101435;28;20036;-82
2022/05/27 02:45:39;;;;;;;2.85;1.30;;;;;;;6.30;100.00;93661.69;2110625;28;20118;-83
2022/05/27 02:47:05;;;;;;;2.42;1.30;;;;;;;6.22;100.00;93650.28;2112954;27;20020;-83
2022/05/27 02:48:22;;;;;;;1.92;1.50;;;;;;;6.29;100.00;93655.63;2115319;27;20031;-82
2022/05/27 02:49:33;;;;;;;2.30;1.60;;;;;;;6.59;100.00;93653.81;2121144;27;20031;-82
2022/05/27 02:50:39;;;;;;;1.95;1.60;;;;;;;6.56;100.00;93655.31;2118852;27;20024;-83
2022/05/27 02:51:47;;;;;;;2.08;1.58;;;;;;;6.46;100.00;93648.84;2114143;28;20027;-83
2022/05/27 02:52:59;;;;;;;3.90;1.42;;;;;;;6.53;100.00;93651.50;2119926;27;20020;-83
2022/05/27 02:54:03;;;;;;;3.03;1.58;;;;;;;6.38;100.00;93652.63;2116055;27;20028;-83
2022/05/27 02:55:10;;;;;;;2.50;1.48;;;;;;;6.35;100.00;93647.28;2121665;27;20369;-83
2022/05/27 02:56:20;;;;;;;5.90;1.40;;;;;;;6.36;100.00;93646.16;2110881;28;20411;-83
2022/05/27 02:57:30;;;;;;;;;;;;;;;6.39;100.00;93645.41;2113665;27;20019;-82
2022/05/27 02:58:32;;;;;;;2.63;1.40;;;;;;;6.42;100.00;93650.75;2122661;27;19981;-83
2022/05/27 02:59:35;;;;;;;3.83;1.48;;;;;;;6.27;100.00;93651.81;2112663;28;20401;-83
2022/05/27 03:00:39;;;;;;;4.78;1.63;;;;;;;6.18;100.00;93649.50;2106436;27;20111;-83
2022/05/27 03:01:40;;;;;;;2.47;1.30;;;;;;;6.33;100.00;93646.94;2118472;28;20027;-83
2022/05/27 03:02:41;;;;;;;1.40;1.30;;;;;;;6.29;100.00;93645.00;2112493;28;20035;-83
2022/05/27 03:03:42;;;;;;;2.42;1.42;;;;;;;6.18;100.00;93649.50;2112673;28;20023;-82
2022/05/27 03:04:52;;;;;;;1.77;1.38;;;;;;;6.21;100.00;93646.13;2119692;27;20019;-83
2022/05/27 03:06:28;;;;;;;1.88;1.70;;;;;;;6.29;100.00;93646.91;2129555;27;20023;-83
2022/05/27 03:07:44;;;;;;;1.60;1.50;;;;;;;6.20;100.00;93641.97;2090434;28;20434;-83
2022/05/27 03:08:54;;;;;;;3.83;1.55;;;;;;;6.18;100.00;93635.50;2087230;28;20570;-83
2022/05/27 03:10:18;;;;;;;3.08;1.73;;;;;;;6.24;100.00;93648.03;2093904;28;20523;-83
2022/05/27 03:11:25;;;;;;;2.40;1.60;;;;;;;6.27;100.00;93649.16;2107155;28;20032;-82
2022/05/27 03:12:53;;;;;;;2.58;1.38;;;;;;;6.26;100.00;93653.72;2105709;28;20097;-83
2022/05/27 03:14:31;;;;;;;2.67;1.40;;;;;;;6.18;100.00;93652.16;2116432;28;20114;-82
2022/05/27 03:16:07;;;;;;;2.92;1.40;;;;;;;6.18;100.00;93640.78;2117549;28;20041;-83
2022/05/27 03:17:24;;;;;;;1.67;1.58;;;;;;;6.43;100.00;93646.94;2108781;28;20522;-83
2022/05/27 03:18:52;;;;;;;2.40;1.80;;;;;;;6.34;100.00;93651.84;2100155;28;20025;-83
2022/05/27 03:20:11;;;;;;;2.90;1.50;;;;;;;6.24;100.00;93647.28;2103311;28;20030;-83
2022/05/27 03:21:35;;;;;;;2.95;1.38;;;;;;;6.16;100.00;93654.44;2106495;28;20384;-82
2022/05/27 03:22:58;;;;;;;2.72;1.60;;;;;;;6.07;100.00;93646.06;2102051;28;20031;-83
2022/05/27 03:24:06;;;;;;;2.60;1.60;;;;;;;6.26;100.00;93645.75;2109920;28;20035;-83
2022/05/27 03:25:32;;;;;;;1.65;1.50;;;;;;;6.37;100.00;93645.03;2107295;28;20020;-83
2022/05/27 03:26:51;;;;;;;1.83;1.50;;;;;;;6.38;100.00;93644.66;2110168;28;20031;-82
2022/05/27 03:27:58;;;;;;;1.60;1.38;;;;;;;6.19;100.00;93643.09;2101041;28;20025;-83
2022/05/27 03:29:14;;;;;;;2.15;1.55;;;;;;;6.05;100.00;93641.13;2091768;28;20063;-83
2022/05/27 03:30:19;;;;;;;2.80;1.52;;;;;;;6.03;100.00;93637.34;2094628;28;20458;-82
2022/05/27 03:31:27;;;;;;;1.48;1.38;;;;;;;6.11;100.00;93643.44;2099008;28;20028;-83
2022/05/27 03:32:58;;;;;;;2.05;1.95;;;;;;;6.07;100.00;93640.78;2115935;27;20056;-83
2022/05/27 03:34:34;;;;;;;3.58;1.60;;;;;;;6.16;100.00;93643.06;2108519;28;20032;-83
2022/05/27 03:35:35;;;;;;;2.63;1.58;;;;;;;6.49;100.00;93653.41;2119954;27;20410;-83
2022/05/27 03:37:01;;;;;;;2.20;1.60;;;;;;;6.34;100.00;93640.47;2115160;28;20027;-83
2022/05/27 03:38:10;;;;;;;1.98;1.50;;;;;;;6.44;100.00;93645.03;2102244;28;20078;-83
2022/05/27 03:39:34;;;;;;;3.45;1.98;;;;;;;6.45;100.00;93647.34;2109260;27;20083;-83
2022/05/27 03:40:46;;;;;;;1.50;1.40;;;;;;;6.42;100.00;93653.41;2118277;27;20106;-82
2022/05/27 03:41:53;;;;;;;1.75;1.63;;;;;;;6.49;100.00;93649.97;2115112;28;20024;-82
2022/05/27 03:42:55;;;;;;;2.33;1.52;;;;;;;6.69;100.00;93643.19;2108188;27;20027;-83
2022/05/27 03:43:56;;;;;;;1.85;1.73;;;;;;;6.59;100.00;93645.84;2106890;28;20514;-83
2022/05/27 03:45:09;;;;;;;1.70;1.52;;;;;;;6.40;100.00;93645.03;2115210;28;20032;-83
2022/05/27 03:46:10;;;;;;;3.50;1.98;;;;;;;6.32;100.00;93643.50;2113370;28;20030;-82
2022/05/27 03:47:11;;;;;;;2.83;2.25;;;;;;;6.38;100.00;93647.31;2090318;28;20020;-83
2022/05/27 03:48:12;;;;;;;2.47;1.63;;;;;;;6.44;100.00;93637.06;2090354;28;20031;-83
2022/05/27 03:49:13;;;;;;;2.67;1.55;;;;;;;6.38;100.00;93647.31;2106705;28;20121;-83
2022/05/27 03:50:23;;;;;;;2.63;1.50;;;;;;;6.28;100.00;93640.09;2098334;28;20025;-82
2022/05/27 03:51:28;;;;;;;2.75;1.77;;;;;;;6.32;100.00;93638.19;2100762;28;20020;-82
2022/05/27 03:52:37;;;;;;;1.65;1.33;;;;;;;6.31;100.00;93634.75;2114935;28;20092;-83
2022/05/27 03:54:59;;;;;;;2.25;1.42;;;;;;;6.51;100.00;93631.78;2111805;27;20032;-83
2022/05/27 03:56:00;;;;;;;2.50;1.30;;;;;;;6.38;100.00;93631.38;2106554;28;20112;-83
2022/05/27 03:57:02;;;;;;;2.00;1.70;;;;;;;6.28;100.00;93637.44;2098215;28;20027;-83
2022/05/27 03:58:03;;;;;;;3.13;1.63;;;;;;;6.27;100.00;93638.53;2106744;28;20024;-83
2022/05/27 03:59:06;;;;;;;1.88;1.50;;;;;;;6.34;100.00;93645.78;2098231;28;20118;-83
2022/05/27 04:00:09;;;;;;;3.75;1.77;;;;;;;6.26;100.00;93647.66;2098510;28;20016;-83
2022/05/27 04:01:10;;;;;;;2.78;1.83;;;;;;;6.24;100.00;93648.03;2111411;27;20015;-83
2022/05/27 04:02:11;;;;;;;2.70;1.83;;;;;;;6.24;100.00;93650.69;2101132;28;20029;-83
2022/05/27 04:03:12;;;;;;;1.90;1.50;;;;;;;6.20;100.00;93651.81;2089993;28;20013;-83
2022/05/27 04:04:17;;;;;;;3.20;1.67;;;;;;;6.27;100.00;93652.56;2098312;28;20561;-83
2022/05/27 04:05:18;;;;;;;1.80;1.60;;;;;;;6.38;100.00;93651.88;2106617;28;20024;-83
2022/05/27 04:06:19;;;;;;;3.92;1.80;;;;;;;6.36;100.00;93657.53;2089911;28;20082;-83
2022/05/27 04:07:20;;;;;;;2.83;1.67;;;;;;;6.42;100.00;93660.59;2089933;28;20025;-83
2022/05/27 04:08:22;;;;;;;1.48;1.38;;;;;;;6.54;100.00;93666.34;2098262;28;20012;-83
2022/05/27 04:09:25;;;;;;;1.80;1.70;;;;;;;6.49;100.00;93664.00;2106484;28;20028;-82
2022/05/27 04:10:26;;;;;;;2.33;1.70;;;;;;;6.43;100.00;93662.88;2090364;28;20116;-82
2022/05/27 04:11:30;;;;;;;2.28;1.58;;;;;;;6.41;100.00;93665.16;2089691;28;20194;-81
2022/05/27 04:12:30;;;;;;;3.90;1.80;;;;;;;6.45;100.00;93665.94;2090274;28;20029;-83
2022/05/27 04:13:31;;;;;;;2.20;1.92;;;;;;;6.35;100.00;93663.97;2089883;28;20094;-83
2022/05/27 04:14:33;;;;;;;1.95;1.70;;;;;;;6.28;100.00;93661.31;2098104;28;20016;-82
2022/05/27 04:15:35;;;;;;;2.78;1.52;;;;;;;6.28;100.00;93664.75;2098103;28;20082;-82
2022/05/27 04:16:37;;;;;;;2.53;1.38;;;;;;;6.30;100.00;93664.34;2090191;28;20143;-82
2022/05/27 04:17:38;;;;;;;2.50;1.33;;;;;;;6.33;100.00;93670.81;2093562;28;20074;-82
2022/05/27 04:18:40;;;;;;;2.50;1.70;;;;;;;6.44;100.00;93667.03;2103400;28;20487;-83
2022/05/27 04:19:41;;;;;;;1.67;1.58;;;;;;;6.45;100.00;93665.16;2115136;27;20023;-83
2022/05/27 04:20:42;;;;;;;2.13;1.50;;;;;;;6.54;100.00;93662.88;2114724;28;20051;-83
2022/05/27 04:21:43;;;;;;;3.65;1.70;;;;;;;6.70;100.00;93673.19;2123374;27;20051;-82
2022/05/27 04:22:44;;;;;;;2.13;1.65;;;;;;;6.71;100.00;93678.09;2114767;27;20031;-82
2022/05/27 04:23:46;;;;;;;2.95;1.70;;;;;;;6.68;100.00;93673.56;2103440;28;20115;-82
2022/05/27 04:24:47;;;;;;;1.80;1.70;;;;;;;6.71;100.00;93667.47;2089914;28;20048;-83
2022/05/27 04:25:50;;;;;;;3.28;2.00;;;;;;;6.86;100.00;93670.94;2089769;28;20024;-83
2022/05/27 04:26:51;;;;;;;3.90;3.60;;;;;;;6.99;100.00;93674.75;2090440;28;20020;-83
2022/05/27 04:27:53;;;;;;;2.45;1.90;;;;;;;7.18;100.00;93670.94;2098220;28;20020;-83
2022/05/27 04:28:54;;;;;;;2.30;2.00;;;;;;;7.31;100.00;93666.75;2106340;28;20042;-82
2022/05/27 04:29:55;;;;;;;2.35;1.83;;;;;;;7.32;100.00;93659.53;2106271;28;20027;-82
2022/05/27 04:30:56;;;;;;;3.88;1.70;;;;;;;7.55;100.00;93661.78;2114888;27;20076;-82
2022/05/27 04:32:00;;;;;;;2.95;1.60;;;;;;;7.66;100.00;93665.22;2112300;27;20027;-83
2022/05/27 04:33:02;;;;;;;3.38;2.03;;;;;;;7.61;100.00;93662.19;2098235;28;20020;-83
2022/05/27 04:34:07;;;;;;;3.55;1.65;;;;;;;7.60;100.00;93661.44;2106311;28;20030;-83
2022/05/27 04:35:09;;;;;;;3.38;1.60;;;;;;;7.67;100.00;93661.41;2098379;28;20025;-83
2022/05/27 04:36:13;;;;;;;2.30;1.98;;;;;;;7.79;100.00;93666.31;2097404;28;20024;-83
2022/05/27 04:37:15;;;;;;;2.42;1.60;;;;;;;7.70;100.00;93665.22;2112118;27;20476;-82
2022/05/27 04:38:16;;;;;;;1.70;1.52;;;;;;;7.97;100.00;93665.53;2103926;28;20040;-82
2022/05/27 04:39:17;;;;;;;1.77;1.63;;;;;;;8.03;100.00;93666.63;2097868;28;20021;-82
2022/05/27 04:40:18;;;;;;;4.00;1.52;;;;;;;8.13;100.00;93663.19;2098045;28;20131;-83
2022/05/27 04:41:23;;;;;;;2.50;1.35;;;;;;;7.98;100.00;93669.69;2097656;28;20090;-82
2022/05/27 04:42:26;;;;;;;3.78;1.73;;;;;;;7.85;100.00;93663.25;2098917;28;20028;-82
2022/05/27 04:43:27;;;;;;;4.05;1.60;;;;;;;7.93;100.00;93660.19;2106860;28;20023;-83
2022/05/27 04:44:28;;;;;;;1.67;1.50;;;;;;;8.36;100.00;93661.97;2114645;27;20034;-83
2022/05/27 04:45:30;;;;;;;4.47;1.83;;;;;;;8.46;100.00;93664.59;2123191;27;20019;-83
2022/05/27 04:46:31;;;;;;;2.97;1.60;;;;;;;8.23;100.00;93664.28;2114722;28;20027;-82
2022/05/27 04:47:32;;;;;;;2.72;1.67;;;;;;;8.20;100.00;93670.38;2101085;28;20025;-83
2022/05/27 04:48:33;;;;;;;3.08;1.60;;;;;;;8.22;100.00;93668.84;2098973;27;20016;-83
2022/05/27 04:49:58;;;;;;;4.28;2.00;;;;;;;8.18;100.00;93672.69;2106180;28;20035;-82
2022/05/27 04:50:59;;;;;;;2.85;1.58;;;;;;;8.34;100.00;93667.69;2121238;27;20022;-83
2022/05/27 04:52:00;;;;;;;1.55;1.30;;;;;;;8.39;100.00;93669.97;2114525;28;20050;-83
2022/05/27 04:53:04;;;;;;;3.40;2.10;;;;;;;8.31;100.00;93674.53;2106329;28;20031;-83
2022/05/27 04:54:05;;;;;;;2.97;1.75;;;;;;;8.38;100.00;93662.34;2115221;27;20555;-83
2022/05/27 04:55:08;;;;;;;2.13;1.70;;;;;;;8.51;100.00;93671.41;2121408;27;20023;-83
2022/05/27 04:56:10;;;;;;;2.97;1.85;;;;;;;8.47;100.00;93674.13;2106394;28;20031;-83
2022/05/27 04:57:31;;;;;;;3.20;1.77;;;;;;;8.40;100.00;93670.72;2106153;28;20085;-83
2022/05/27 04:58:32;;;;;;;1.88;1.50;;;;;;;8.32;100.00;93668.03;2111904;27;20015;-83
2022/05/27 04:59:36;;;;;;;2.38;1.75;;;;;;;8.37;100.00;93666.91;2106164;28;20795;-83
2022/05/27 05:00:40;;;;;;;3.20;1.70;;;;;;;8.41;100.00;93672.22;2116090;27;20037;-83
2022/05/27 05:01:41;;;;;;;2.00;1.80;;;;;;;8.39;100.00;93667.31;2104043;28;20388;-83
2022/05/27 05:02:43;;;;;;;2.20;1.45;;;;;;;8.48;100.00;93667.63;2097742;28;20024;-83
2022/05/27 05:03:44;;;;;;;3.15;1.80;;;;;;;8.49;100.00;93671.81;2097935;28;20108;-83
2022/05/27 05:04:45;;;;;;;4.63;1.70;;;;;;;8.63;100.00;93670.22;2097785;28;20093;-83
2022/05/27 05:05:46;;;;;;;3.15;1.88;;;;;;;8.48;100.00;93666.88;2114532;28;20027;-82
2022/05/27 05:06:47;;;;;;;1.67;1.58;;;;;;;8.47;100.00;93665.34;2114486;28;20024;-82
2022/05/27 05:08:00;;;;;;;2.53;1.90;;;;;;;8.64;100.00;93671.72;2097866;28;20016;-83
2022/05/27 05:09:01;;;;;;;3.00;1.63;;;;;;;8.62;100.00;93669.47;2109327;27;20027;-83
2022/05/27 05:10:05;;;;;;;3.00;1.70;;;;;;;8.55;100.00;93672.91;2114421;27;20796;-83
2022/05/27 05:11:06;;;;;;;2.15;1.60;;;;;;;8.61;100.00;93670.63;2106211;28;20020;-83
2022/05/27 05:12:09;;;;;;;2.42;1.70;;;;;;;8.64;100.00;93661.06;2097674;28;20094;-83
2022/05/27 05:13:10;;;;;;;1.60;1.50;;;;;;;8.71;100.00;93666.38;2097919;28;20480;-83
2022/05/27 05:14:11;;;;;;;4.93;1.50;;;;;;;8.93;100.00;93659.00;2097673;28;20028;-83
2022/05/27 05:15:13;;;;;;;2.50;1.58;;;;;;;8.94;100.00;93660.50;2114485;28;20019;-83
2022/05/27 05:16:15;;;;;;;5.20;1.58;;;;;;;8.97;100.00;93665.06;2104458;28;20245;-83
2022/05/27 05:17:16;;;;;;;4.75;1.40;;;;;;;9.02;100.00;93662.75;2114315;27;20050;-83
2022/05/27 05:18:17;;;;;;;2.75;1.83;;;;;;;9.05;100.00;93666.53;2114287;28;20474;-83
2022/05/27 05:19:19;;;;;;;4.53;1.77;;;;;;;9.01;100.00;93665.81;2114567;27;20506;-83
2022/05/27 05:20:26;;;;;;;6.40;2.22;;;;;;;9.30;100.00;93666.34;2122770;27;20031;-83
2022/05/27 05:21:28;;;;;;;3.83;1.90;;;;;;;9.11;100.00;93656.97;2115060;27;20149;-83
2022/05/27 05:22:29;;;;;;;5.22;1.85;;;;;;;9.23;100.00;93663.75;2106358;28;20020;-82
2022/05/27 05:23:30;;;;;;;2.55;1.90;;;;;;;9.25;100.00;93666.75;2122700;27;20051;-83
2022/05/27 05:24:32;;;;;;;3.38;1.77;;;;;;;9.20;100.00;93664.53;2122929;27;20399;-83
2022/05/27 05:25:33;;;;;;;4.28;1.83;;;;;;;9.24;100.00;93663.34;2131503;27;20022;-83
2022/05/27 05:26:35;;;;;;;3.08;1.55;;;;;;;9.23;100.00;93661.06;2114526;28;20102;-83